Time;durP1;ratioP1;P1;durP2;ratioP2;P2;SDS_P1;SDS_P2;PMS_P1;PMS_P2;Temp;Humidity;BMP_temperature;BMP_pressure;BME280_temperature;BME280_humidity;BME280_pressure;Samples;Min_cycle;Max_cycle;Signal;HPM_P1;HPM_P2
2021/12/07 00:01:28;;;;;;;72.78;27.77;;;;;;;;;;10246036;28;20073;-59
2021/12/07 00:06:27;;;;;;;74.32;28.40;;;;;;;;;;10248574;28;20084;-59
2021/12/07 00:11:28;;;;;;;71.45;24.02;;;;;;;;;;10246420;28;20166;-59
2021/12/07 00:16:27;;;;;;;91.22;26.35;;;;;;;;;;10245137;28;20065;-59
2021/12/07 00:21:25;;;;;;;171.85;29.15;;;;;;;;;;10246492;28;20529;-59
2021/12/07 00:26:24;;;;;;;67.10;27.80;;;;;;;;;;10248369;28;20494;-59
2021/12/07 00:31:27;;;;;;;70.60;25.83;;;;;;;;;;10246265;28;20057;-59
2021/12/07 00:36:26;;;;;;;70.28;24.90;;;;;;;;;;10248261;28;20080;-60
2021/12/07 00:41:24;;;;;;;47.55;22.98;;;;;;;;;;10250003;28;20084;-60
2021/12/07 00:46:26;;;;;;;69.55;21.58;;;;;;;;;;10252705;28;20080;-60
2021/12/07 00:51:24;;;;;;;53.42;24.20;;;;;;;;;;10247607;28;20077;-60
2021/12/07 00:56:22;;;;;;;52.78;24.02;;;;;;;;;;10246104;28;20195;-60
2021/12/07 01:01:21;;;;;;;54.40;21.35;;;;;;;;;;10250480;28;20041;-60
2021/12/07 01:06:27;;;;;;;72.78;23.65;;;;;;;;;;10246102;28;20514;-60
2021/12/07 01:27:26;;;;;;;131.88;27.90;;;;;;;;;;10247136;28;20083;-60
2021/12/07 01:32:39;;;;;;;67.55;22.70;;;;;;;;;;10244712;28;20068;-60
2021/12/07 01:37:56;;;;;;;42.00;23.15;;;;;;;;;;10247870;28;20071;-58
2021/12/07 02:04:19;;;;;;;29.50;17.92;;;;;;;;;;10231552;28;20085;-60
2021/12/07 02:09:19;;;;;;;30.30;17.83;;;;;;;;;;10241742;28;20467;-60
2021/12/07 02:14:19;;;;;;;24.73;16.27;;;;;;;;;;10248899;28;20058;-60
2021/12/07 02:19:20;;;;;;;26.52;16.40;;;;;;;;;;10253012;28;20046;-59
2021/12/07 02:24:20;;;;;;;32.83;19.15;;;;;;;;;;10242684;28;20495;-60
2021/12/07 02:29:20;;;;;;;29.83;18.92;;;;;;;;;;10249808;28;20088;-59
2021/12/07 02:34:18;;;;;;;30.33;17.58;;;;;;;;;;10248256;28;20081;-59
2021/12/07 02:39:17;;;;;;;50.08;23.10;;;;;;;;;;10246819;28;20053;-59
2021/12/07 02:44:17;;;;;;;46.40;23.10;;;;;;;;;;10241159;28;20085;-62
2021/12/07 02:49:15;;;;;;;47.22;20.73;;;;;;;;;;10240368;28;20072;-60
2021/12/07 02:54:14;;;;;;;31.73;21.35;;;;;;;;;;10241988;28;20053;-59
2021/12/07 02:59:13;;;;;;;26.90;17.13;;;;;;;;;;10244496;28;20490;-58
2021/12/07 03:04:21;;;;;;;27.02;16.63;;;;;;;;;;10244647;28;20092;-59
2021/12/07 03:30:29;;;;;;;24.70;15.27;;;;;;;;;;10255534;28;20053;-59
2021/12/07 03:35:30;;;;;;;27.50;14.68;;;;;;;;;;10256766;28;20042;-58
2021/12/07 03:40:30;;;;;;;31.90;16.20;;;;;;;;;;10254548;28;20045;-60
2021/12/07 03:45:31;;;;;;;26.40;14.25;;;;;;;;;;10250844;28;20048;-59
2021/12/07 03:50:32;;;;;;;27.27;15.77;;;;;;;;;;10254181;28;20053;-59
2021/12/07 03:55:31;;;;;;;23.90;14.80;;;;;;;;;;10254040;28;20534;-59
2021/12/07 04:00:30;;;;;;;31.63;16.20;;;;;;;;;;10253231;28;20057;-59
2021/12/07 04:05:29;;;;;;;27.67;16.70;;;;;;;;;;10248300;28;20084;-59
2021/12/07 04:10:29;;;;;;;26.13;15.95;;;;;;;;;;10244601;28;20553;-59
2021/12/07 04:15:28;;;;;;;31.90;22.35;;;;;;;;;;10249495;28;20068;-59
2021/12/07 04:20:27;;;;;;;30.48;18.65;;;;;;;;;;10252557;28;20057;-59
2021/12/07 04:25:25;;;;;;;26.58;15.75;;;;;;;;;;10246905;28;20076;-59
2021/12/07 04:30:26;;;;;;;23.55;13.70;;;;;;;;;;10247828;28;20088;-59
2021/12/07 04:35:25;;;;;;;22.95;13.90;;;;;;;;;;10249111;28;20076;-59
2021/12/07 04:40:24;;;;;;;29.77;19.50;;;;;;;;;;10242738;28;20491;-59
2021/12/07 04:45:32;;;;;;;81.78;40.53;;;;;;;;;;10243850;28;20069;-59
2021/12/07 04:57:35;;;;;;;30.42;21.20;;;;;;;;;;10249076;28;20060;-59
2021/12/07 05:01:11;;;;;;;;;;;;;;;;;;10251045;28;20080;-59
2021/12/07 05:06:12;;;;;;;33.65;22.77;;;;;;;;;;10252012;28;19968;-60
2021/12/07 05:11:26;;;;;;;30.17;19.77;;;;;;;;;;10250228;28;20121;-59
2021/12/07 05:16:47;;;;;;;22.95;16.45;;;;;;;;;;10248329;28;20077;-60
2021/12/07 05:37:45;;;;;;;43.72;32.50;;;;;;;;;;10244577;28;20325;-60
2021/12/07 05:42:44;;;;;;;64.18;40.45;;;;;;;;;;10245433;28;20531;-60
2021/12/07 05:47:43;;;;;;;35.20;24.42;;;;;;;;;;10246787;28;20084;-60
2021/12/07 05:52:42;;;;;;;30.70;20.85;;;;;;;;;;10244242;28;20497;-59
2021/12/07 05:57:41;;;;;;;23.48;16.30;;;;;;;;;;10244581;28;20084;-60
2021/12/07 06:02:39;;;;;;;27.50;16.95;;;;;;;;;;10250109;28;20072;-60
2021/12/07 06:07:38;;;;;;;33.97;20.38;;;;;;;;;;10243795;28;20068;-61
2021/12/07 06:12:38;;;;;;;23.65;15.68;;;;;;;;;;10237815;28;20072;-59
2021/12/07 06:17:36;;;;;;;42.95;25.15;;;;;;;;;;10239831;28;20080;-59
2021/12/07 06:22:34;;;;;;;29.90;18.63;;;;;;;;;;10239782;28;20494;-59
2021/12/07 06:27:33;;;;;;;52.88;29.00;;;;;;;;;;10246023;28;20069;-58
2021/12/07 06:32:32;;;;;;;28.23;17.70;;;;;;;;;;10249804;28;20068;-58
2021/12/07 06:37:31;;;;;;;25.00;16.45;;;;;;;;;;10246776;28;20064;-61
2021/12/07 06:42:29;;;;;;;24.98;18.33;;;;;;;;;;10256176;28;20525;-61
2021/12/07 06:47:27;;;;;;;26.75;19.63;;;;;;;;;;10256900;28;20060;-61
2021/12/07 06:52:27;;;;;;;21.58;15.18;;;;;;;;;;10254472;28;20056;-62
2021/12/07 06:57:25;;;;;;;20.38;14.30;;;;;;;;;;10252835;28;20095;-63
2021/12/07 07:02:24;;;;;;;25.42;17.90;;;;;;;;;;10251569;28;20056;-58
2021/12/07 07:07:24;;;;;;;25.48;16.42;;;;;;;;;;10251016;28;20206;-59
2021/12/07 07:12:23;;;;;;;20.77;15.32;;;;;;;;;;10252662;28;20080;-58
2021/12/07 07:17:22;;;;;;;31.95;18.60;;;;;;;;;;10252625;28;20072;-58
2021/12/07 07:22:20;;;;;;;17.60;13.15;;;;;;;;;;10247340;28;20306;-58
2021/12/07 07:27:19;;;;;;;63.60;40.80;;;;;;;;;;10245257;28;20072;-58
2021/12/07 07:32:19;;;;;;;47.78;37.17;;;;;;;;;;10246711;28;20122;-59
2021/12/07 07:37:17;;;;;;;18.00;13.40;;;;;;;;;;10244320;28;20104;-59
2021/12/07 07:42:16;;;;;;;16.15;11.30;;;;;;;;;;10240196;28;20498;-59
2021/12/07 07:47:38;;;;;;;16.05;11.80;;;;;;;;;;10240073;28;20552;-59
2021/12/07 07:52:37;;;;;;;21.30;12.57;;;;;;;;;;10240670;28;20072;-59
2021/12/07 07:57:35;;;;;;;16.90;12.68;;;;;;;;;;10243211;28;20084;-59
2021/12/07 08:02:33;;;;;;;40.92;28.02;;;;;;;;;;10248308;28;20061;-60
2021/12/07 08:07:33;;;;;;;41.30;33.85;;;;;;;;;;10248474;28;20085;-59
2021/12/07 08:12:31;;;;;;;43.75;33.85;;;;;;;;;;10248511;28;20062;-59
2021/12/07 08:17:30;;;;;;;55.40;37.42;;;;;;;;;;10245924;28;20106;-59
2021/12/07 08:22:30;;;;;;;46.78;34.05;;;;;;;;;;10244328;28;20656;-58
2021/12/07 08:27:29;;;;;;;36.58;24.23;;;;;;;;;;10248205;28;21100;-59
2021/12/07 08:32:27;;;;;;;20.98;14.85;;;;;;;;;;10245007;28;20068;-59
2021/12/07 08:37:26;;;;;;;30.95;22.90;;;;;;;;;;10246660;28;20065;-59
2021/12/07 08:42:24;;;;;;;26.73;20.40;;;;;;;;;;10246563;28;20067;-59
2021/12/07 08:47:24;;;;;;;19.77;15.48;;;;;;;;;;10245946;28;20096;-58
2021/12/07 08:52:39;;;;;;;17.58;11.65;;;;;;;;;;10245136;28;20437;-59
2021/12/07 09:02:54;;;;;;;34.03;21.77;;;;;;;;;;10253495;28;20559;-59
2021/12/07 09:07:53;;;;;;;27.63;15.18;;;;;;;;;;10248335;28;20072;-59
2021/12/07 09:12:51;;;;;;;21.65;14.10;;;;;;;;;;10246745;28;20483;-59
2021/12/07 09:17:49;;;;;;;26.17;16.73;;;;;;;;;;10245970;28;20072;-59
2021/12/07 09:22:49;;;;;;;25.10;15.95;;;;;;;;;;10242289;28;20076;-59
2021/12/07 09:27:47;;;;;;;14.77;10.77;;;;;;;;;;10248009;28;20060;-58
2021/12/07 09:32:46;;;;;;;15.07;10.27;;;;;;;;;;10244475;28;20179;-59
2021/12/07 09:37:44;;;;;;;20.20;16.08;;;;;;;;;;10245647;28;20034;-59
2021/12/07 09:42:44;;;;;;;23.77;19.33;;;;;;;;;;10242386;28;20164;-59
2021/12/07 09:47:43;;;;;;;20.10;14.05;;;;;;;;;;10241392;28;20057;-59
2021/12/07 09:52:43;;;;;;;15.82;11.70;;;;;;;;;;10241981;28;20061;-58
2021/12/07 09:57:42;;;;;;;38.00;28.65;;;;;;;;;;10244845;28;20080;-59
2021/12/07 10:02:42;;;;;;;25.67;17.90;;;;;;;;;;10247379;28;20061;-59
2021/12/07 10:07:42;;;;;;;36.22;25.00;;;;;;;;;;10243680;28;20506;-58
2021/12/07 10:12:40;;;;;;;39.53;26.42;;;;;;;;;;10243734;28;21014;-59
2021/12/07 10:17:39;;;;;;;34.72;22.27;;;;;;;;;;10245950;28;20072;-59
2021/12/07 10:22:42;;;;;;;30.27;20.15;;;;;;;;;;10240153;28;20060;-59
2021/12/07 10:27:43;;;;;;;21.25;16.65;;;;;;;;;;10239847;28;20522;-59
2021/12/07 10:32:41;;;;;;;31.02;23.88;;;;;;;;;;10242842;28;20483;-60
2021/12/07 10:37:41;;;;;;;109.80;54.78;;;;;;;;;;10240987;28;20080;-59
2021/12/07 10:42:41;;;;;;;92.90;55.72;;;;;;;;;;10241600;28;20045;-59
2021/12/07 10:47:39;;;;;;;189.25;85.90;;;;;;;;;;10242887;28;20065;-60
2021/12/07 10:52:40;;;;;;;109.03;64.00;;;;;;;;;;10240465;28;20572;-59
2021/12/07 10:57:41;;;;;;;54.60;33.70;;;;;;;;;;10241336;28;20048;-59
2021/12/07 11:02:40;;;;;;;43.97;30.73;;;;;;;;;;10240940;28;20524;-59
2021/12/07 11:07:39;;;;;;;34.80;22.58;;;;;;;;;;10242560;28;20072;-59
2021/12/07 11:12:46;;;;;;;35.58;25.85;;;;;;;;;;10241222;28;20061;-59
2021/12/07 11:17:45;;;;;;;33.10;22.75;;;;;;;;;;10239198;28;20435;-59
2021/12/07 11:22:49;;;;;;;83.93;49.08;;;;;;;;;;10241995;28;20140;-59
2021/12/07 11:33:05;;;;;;;40.10;26.98;;;;;;;;;;10250409;28;20532;-58
2021/12/07 11:38:05;;;;;;;33.58;23.77;;;;;;;;;;10249798;28;20430;-59
2021/12/07 11:43:15;;;;;;;52.63;32.88;;;;;;;;;;10246808;28;20076;-59
2021/12/07 11:48:13;;;;;;;43.28;30.20;;;;;;;;;;10249506;28;20480;-59
2021/12/07 11:53:17;;;;;;;34.28;23.95;;;;;;;;;;10249727;28;20110;-59
2021/12/07 11:58:17;;;;;;;28.65;20.00;;;;;;;;;;10246550;28;20085;-59
2021/12/07 12:03:17;;;;;;;34.20;21.10;;;;;;;;;;10248047;28;20486;-59
2021/12/07 12:08:19;;;;;;;22.38;19.13;;;;;;;;;;10252364;28;20605;-59
2021/12/07 12:13:23;;;;;;;34.33;25.92;;;;;;;;;;10248835;28;20064;-59
2021/12/07 12:18:28;;;;;;;28.27;20.17;;;;;;;;;;10246282;28;20072;-59
2021/12/07 12:23:33;;;;;;;27.80;20.35;;;;;;;;;;10244280;28;20072;-58
2021/12/07 12:28:36;;;;;;;30.73;20.80;;;;;;;;;;10247789;28;20486;-59
2021/12/07 12:33:44;;;;;;;58.88;31.45;;;;;;;;;;10248110;28;20490;-60
2021/12/07 12:38:48;;;;;;;61.95;44.88;;;;;;;;;;10246024;28;20061;-58
2021/12/07 12:43:52;;;;;;;59.07;32.53;;;;;;;;;;10252799;28;20557;-59
2021/12/07 12:48:51;;;;;;;24.77;17.67;;;;;;;;;;10248302;28;20073;-59
2021/12/07 12:53:54;;;;;;;46.58;30.92;;;;;;;;;;10246230;28;20061;-59
2021/12/07 12:58:55;;;;;;;29.45;20.05;;;;;;;;;;10244737;28;20080;-59
2021/12/07 13:04:05;;;;;;;50.22;34.97;;;;;;;;;;10246624;28;20072;-59
2021/12/07 13:09:06;;;;;;;70.45;56.25;;;;;;;;;;10245617;28;20490;-59
2021/12/07 13:14:07;;;;;;;38.72;23.80;;;;;;;;;;10243242;28;20072;-60
2021/12/07 13:19:08;;;;;;;35.15;24.85;;;;;;;;;;10242625;28;20034;-59
2021/12/07 13:24:08;;;;;;;32.58;23.95;;;;;;;;;;10246473;28;20061;-59
2021/12/07 13:29:11;;;;;;;90.53;70.22;;;;;;;;;;10250515;28;20153;-61
2021/12/07 13:34:10;;;;;;;24.70;17.70;;;;;;;;;;10249890;28;20133;-59
2021/12/07 13:39:23;;;;;;;73.60;52.38;;;;;;;;;;10248025;28;20103;-59
2021/12/07 13:44:23;;;;;;;30.83;21.17;;;;;;;;;;10245907;28;20073;-59
2021/12/07 13:49:21;;;;;;;27.27;20.63;;;;;;;;;;10238008;28;20072;-58
2021/12/07 13:54:21;;;;;;;24.35;18.17;;;;;;;;;;10241603;28;20516;-58
2021/12/07 13:59:21;;;;;;;35.63;20.52;;;;;;;;;;10246070;28;20092;-59
2021/12/07 14:04:23;;;;;;;61.22;45.95;;;;;;;;;;10248416;28;20064;-60
2021/12/07 14:09:23;;;;;;;60.00;39.22;;;;;;;;;;10248796;28;20156;-60
2021/12/07 14:14:21;;;;;;;71.57;41.13;;;;;;;;;;10240873;28;20103;-60
2021/12/07 14:19:21;;;;;;;64.57;40.92;;;;;;;;;;10243017;28;20083;-60
2021/12/07 14:24:20;;;;;;;69.57;45.95;;;;;;;;;;10244738;28;20085;-59
2021/12/07 14:29:20;;;;;;;58.88;37.28;;;;;;;;;;10244458;28;20073;-58
2021/12/07 14:34:22;;;;;;;45.53;32.95;;;;;;;;;;10245272;28;20506;-59
2021/12/07 14:39:22;;;;;;;81.13;54.35;;;;;;;;;;10263561;28;20073;-59
2021/12/07 14:44:22;;;;;;;63.35;41.17;;;;;;;;;;10240622;28;20069;-59
2021/12/07 14:49:22;;;;;;;40.88;27.75;;;;;;;;;;10244551;28;20088;-58
2021/12/07 14:54:20;;;;;;;89.53;56.13;;;;;;;;;;10239608;28;20148;-58
2021/12/07 14:59:19;;;;;;;43.95;31.60;;;;;;;;;;10241540;28;20081;-58
2021/12/07 15:04:18;;;;;;;48.70;33.22;;;;;;;;;;10249928;28;20053;-59
2021/12/07 15:09:19;;;;;;;35.28;22.90;;;;;;;;;;10248307;28;20096;-59
2021/12/07 15:14:18;;;;;;;59.38;42.80;;;;;;;;;;10246182;28;20073;-59
2021/12/07 15:19:17;;;;;;;48.22;36.05;;;;;;;;;;10247484;28;20069;-58
2021/12/07 15:24:17;;;;;;;69.57;51.95;;;;;;;;;;10248641;28;20083;-58
2021/12/07 15:29:17;;;;;;;121.00;81.03;;;;;;;;;;10247795;28;20072;-59
2021/12/07 15:34:17;;;;;;;149.32;88.43;;;;;;;;;;10249761;28;20088;-58
2021/12/07 15:39:18;;;;;;;89.53;47.38;;;;;;;;;;10249197;28;20129;-58
2021/12/07 15:44:23;;;;;;;103.05;64.28;;;;;;;;;;10253434;28;20536;-58
2021/12/07 15:49:22;;;;;;;39.33;32.67;;;;;;;;;;10252067;28;20111;-59
2021/12/07 15:54:21;;;;;;;52.63;37.40;;;;;;;;;;10247833;28;20072;-58
2021/12/07 15:59:20;;;;;;;53.80;41.45;;;;;;;;;;10247535;28;20454;-59
2021/12/07 16:04:22;;;;;;;83.10;50.47;;;;;;;;;;10248504;28;20580;-58
2021/12/07 16:09:22;;;;;;;57.53;43.53;;;;;;;;;;10251639;28;20076;-59
2021/12/07 16:14:26;;;;;;;63.25;40.38;;;;;;;;;;10247604;28;20401;-58
2021/12/07 16:19:25;;;;;;;54.40;39.23;;;;;;;;;;10244010;28;20076;-59
2021/12/07 16:24:23;;;;;;;133.13;78.88;;;;;;;;;;10249425;28;20081;-58
2021/12/07 16:29:44;;;;;;;64.68;43.17;;;;;;;;;;10252565;28;20077;-59
2021/12/07 16:34:43;;;;;;;42.83;29.73;;;;;;;;;;10246826;28;20087;-59
2021/12/07 16:39:43;;;;;;;79.03;58.25;;;;;;;;;;10244970;28;20212;-59
2021/12/07 16:44:44;;;;;;;65.50;51.00;;;;;;;;;;10244809;28;20077;-59
2021/12/07 16:49:42;;;;;;;74.00;58.78;;;;;;;;;;10248346;28;20084;-59
2021/12/07 16:54:40;;;;;;;36.88;28.80;;;;;;;;;;10245235;28;20076;-58
2021/12/07 16:59:39;;;;;;;33.10;25.25;;;;;;;;;;10245127;28;20061;-58
2021/12/07 17:04:39;;;;;;;30.17;25.00;;;;;;;;;;10245204;28;20664;-58
2021/12/07 17:09:37;;;;;;;41.55;28.10;;;;;;;;;;10244416;28;20073;-59
2021/12/07 17:14:36;;;;;;;32.53;25.17;;;;;;;;;;10244959;28;20073;-59
2021/12/07 17:19:34;;;;;;;64.25;42.38;;;;;;;;;;10244419;28;20135;-59
2021/12/07 17:24:34;;;;;;;101.20;54.45;;;;;;;;;;10242971;28;20061;-59
2021/12/07 17:29:32;;;;;;;45.38;34.70;;;;;;;;;;10242674;28;20065;-59
2021/12/07 17:34:30;;;;;;;67.78;46.80;;;;;;;;;;10241035;28;20069;-59
2021/12/07 17:39:30;;;;;;;77.05;43.33;;;;;;;;;;10238837;28;20065;-58
2021/12/07 17:44:29;;;;;;;90.88;56.15;;;;;;;;;;10246052;28;20425;-58
2021/12/07 17:49:27;;;;;;;80.88;48.33;;;;;;;;;;10243959;28;20454;-59
2021/12/07 17:54:26;;;;;;;88.35;53.47;;;;;;;;;;10243746;28;20081;-59
2021/12/07 17:59:25;;;;;;;47.85;33.45;;;;;;;;;;10248492;28;20084;-57
2021/12/07 18:04:25;;;;;;;82.07;52.15;;;;;;;;;;10246000;28;20064;-56
2021/12/07 18:09:24;;;;;;;33.70;25.17;;;;;;;;;;10247295;28;20084;-58
2021/12/07 18:14:22;;;;;;;51.97;29.35;;;;;;;;;;10245098;28;20438;-59
2021/12/07 18:19:21;;;;;;;33.95;26.30;;;;;;;;;;10247122;28;20521;-58
2021/12/07 18:24:21;;;;;;;26.17;20.25;;;;;;;;;;10244712;28;20084;-59
2021/12/07 18:29:39;;;;;;;36.50;28.63;;;;;;;;;;10247018;28;20585;-59
2021/12/07 18:34:38;;;;;;;41.03;29.25;;;;;;;;;;10246243;28;20061;-58
2021/12/07 18:39:40;;;;;;;22.92;19.42;;;;;;;;;;10248857;28;20490;-59
2021/12/07 18:44:39;;;;;;;41.35;27.77;;;;;;;;;;10246854;28;20434;-59
2021/12/07 18:49:37;;;;;;;76.05;43.35;;;;;;;;;;10247158;28;20473;-59
2021/12/07 18:54:36;;;;;;;59.45;37.88;;;;;;;;;;10248778;28;20071;-59
2021/12/07 18:59:37;;;;;;;52.80;35.10;;;;;;;;;;10248935;28;20080;-58
2021/12/07 19:04:35;;;;;;;72.95;45.85;;;;;;;;;;10246121;28;20080;-60
2021/12/07 19:09:33;;;;;;;53.15;35.97;;;;;;;;;;10246517;28;20068;-59
2021/12/07 19:14:32;;;;;;;109.57;60.97;;;;;;;;;;10250119;28;20379;-58
2021/12/07 19:19:32;;;;;;;111.07;62.25;;;;;;;;;;10243538;28;20064;-59
2021/12/07 19:24:30;;;;;;;106.18;58.30;;;;;;;;;;10243847;28;20072;-58
2021/12/07 19:29:31;;;;;;;78.80;43.40;;;;;;;;;;10246081;28;20560;-58
2021/12/07 19:34:29;;;;;;;100.25;57.85;;;;;;;;;;10243475;28;20079;-57
2021/12/07 19:39:29;;;;;;;76.88;46.65;;;;;;;;;;10247586;28;20068;-58
2021/12/07 19:44:28;;;;;;;136.68;73.75;;;;;;;;;;10247580;28;20088;-57
2021/12/07 19:49:26;;;;;;;69.22;44.22;;;;;;;;;;10248577;28;20489;-58
2021/12/07 19:54:25;;;;;;;36.28;24.00;;;;;;;;;;10254600;28;20069;-58
2021/12/07 19:59:26;;;;;;;92.13;52.45;;;;;;;;;;10250579;28;20076;-57
2021/12/07 20:04:25;;;;;;;38.67;21.77;;;;;;;;;;10245932;28;20454;-58
2021/12/07 20:09:24;;;;;;;27.75;13.93;;;;;;;;;;10257236;28;20455;-59
2021/12/07 20:14:24;;;;;;;63.50;25.02;;;;;;;;;;10247377;28;20073;-59
2021/12/07 20:19:39;;;;;;;58.93;27.50;;;;;;;;;;10254730;28;20069;-58
2021/12/07 20:24:37;;;;;;;69.80;26.95;;;;;;;;;;10245660;28;20065;-59
2021/12/07 20:29:35;;;;;;;77.07;31.23;;;;;;;;;;10247959;28;20467;-58
2021/12/07 20:34:35;;;;;;;123.32;47.83;;;;;;;;;;10249405;28;20096;-58
2021/12/07 20:39:35;;;;;;;65.63;27.27;;;;;;;;;;10248678;28;20457;-58
2021/12/07 20:44:33;;;;;;;40.22;18.92;;;;;;;;;;10250666;28;20072;-58
2021/12/07 20:49:35;;;;;;;44.85;19.98;;;;;;;;;;10249489;28;20076;-59
2021/12/07 20:54:35;;;;;;;49.95;21.85;;;;;;;;;;10254707;28;20073;-59
2021/12/07 20:59:51;;;;;;;48.17;20.67;;;;;;;;;;10250218;28;20073;-58
2021/12/07 21:04:52;;;;;;;33.10;16.75;;;;;;;;;;10245393;28;20080;-58
2021/12/07 21:09:52;;;;;;;44.45;20.08;;;;;;;;;;10247648;28;20142;-58
2021/12/07 21:14:50;;;;;;;34.95;16.60;;;;;;;;;;10250409;28;20584;-58
2021/12/07 21:19:49;;;;;;;34.90;16.38;;;;;;;;;;10247029;28;20466;-56
2021/12/07 21:24:47;;;;;;;16.58;11.10;;;;;;;;;;10246561;28;20186;-59
2021/12/07 21:29:47;;;;;;;15.48;10.82;;;;;;;;;;10243858;28;20073;-58
2021/12/07 21:34:45;;;;;;;49.15;22.58;;;;;;;;;;10244793;28;20080;-58
2021/12/07 21:39:44;;;;;;;73.70;32.88;;;;;;;;;;10249459;28;20068;-58
2021/12/07 21:44:43;;;;;;;18.25;11.35;;;;;;;;;;10244362;28;20087;-56
2021/12/07 21:49:46;;;;;;;28.67;15.98;;;;;;;;;;10245322;28;20041;-56
2021/12/07 21:54:44;;;;;;;38.22;20.52;;;;;;;;;;10246828;28;20075;-58
2021/12/07 21:59:42;;;;;;;17.52;10.27;;;;;;;;;;10250828;28;20136;-59
2021/12/07 22:04:40;;;;;;;17.60;12.85;;;;;;;;;;10250451;28;20068;-58
2021/12/07 22:09:40;;;;;;;25.25;16.08;;;;;;;;;;10251834;28;20065;-59
2021/12/07 22:14:38;;;;;;;14.40;10.88;;;;;;;;;;10252993;28;20532;-59
2021/12/07 22:19:37;;;;;;;25.60;18.33;;;;;;;;;;10250293;28;20084;-59
2021/12/07 22:24:36;;;;;;;20.45;15.82;;;;;;;;;;10246383;28;20053;-59
2021/12/07 22:29:36;;;;;;;29.50;17.70;;;;;;;;;;10249358;28;20092;-57
2021/12/07 22:34:35;;;;;;;20.20;13.57;;;;;;;;;;10250642;28;20072;-59
2021/12/07 22:39:34;;;;;;;38.80;23.67;;;;;;;;;;10252823;28;20075;-58
2021/12/07 22:44:32;;;;;;;8.30;7.50;;;;;;;;;;10247283;28;20061;-59
2021/12/07 22:49:32;;;;;;;24.98;14.13;;;;;;;;;;10248964;28;20084;-59
2021/12/07 22:54:30;;;;;;;10.80;9.10;;;;;;;;;;10249602;28;20080;-59
2021/12/07 22:59:29;;;;;;;24.05;15.82;;;;;;;;;;10251045;28;20398;-59
2021/12/07 23:04:27;;;;;;;14.35;10.98;;;;;;;;;;10245038;28;20188;-59
2021/12/07 23:09:27;;;;;;;7.97;7.13;;;;;;;;;;10247117;28;20065;-57
2021/12/07 23:14:25;;;;;;;16.73;10.43;;;;;;;;;;10251205;28;20087;-59
2021/12/07 23:19:25;;;;;;;57.35;26.92;;;;;;;;;;10254851;28;20483;-59
2021/12/07 23:24:24;;;;;;;30.35;16.63;;;;;;;;;;10253096;28;20076;-58
2021/12/07 23:29:25;;;;;;;29.60;18.77;;;;;;;;;;10257158;28;20513;-57
2021/12/07 23:34:23;;;;;;;6.40;5.40;;;;;;;;;;10252563;28;20076;-57
2021/12/07 23:39:22;;;;;;;12.00;7.38;;;;;;;;;;10257647;28;20068;-58
2021/12/07 23:44:21;;;;;;;7.13;5.43;;;;;;;;;;10260260;28;20072;-58
2021/12/07 23:49:21;;;;;;;7.45;5.53;;;;;;;;;;10251802;28;20070;-59
2021/12/07 23:54:19;;;;;;;8.23;5.88;;;;;;;;;;10254366;28;20073;-59
2021/12/07 23:59:18;;;;;;;7.93;5.70;;;;;;;;;;10248900;28;20507;-59
